METAR Data
IDs: Format: Raw Decoded Include TAF

Data at: 1428 UTC 21 Apr 2021

METAR for:KADU (Audubon Cnty Arpt, IA, US)
Text:KADU 211415Z AUTO 35016G23KT 10SM SCT045 SCT070 01/M04 A3025 RMK AO2
Temperature: 1.0°C ( 34°F)
Dewpoint: -4.0°C ( 25°F) [RH = 69%]
Pressure (altimeter):30.25 inches Hg (1024.5 mb)
Winds:from the N (350 degrees) at 18 MPH (16 knots; 8.2 m/s) gusting to 26 MPH (23 knots; 11.8 m/s)
Visibility:10 or more sm (16+ km)
Ceiling:at least 12,000 feet AGL
Clouds: scattered clouds at 4500 feet AGL, scattered clouds at 7000 feet AGL
QC Flag:automated observation with no human augmentation